Time;durP1;ratioP1;P1;durP2;ratioP2;P2;SDS_P1;SDS_P2;PMS_P1;PMS_P2;Temp;Humidity;BMP_temperature;BMP_pressure;BME280_temperature;BME280_humidity;BME280_pressure;Samples;Min_cycle;Max_cycle;Signal;HPM_P1;HPM_P2
2022/07/06 00:02:15;;;;;;;;;;;12.00;99.90;;;;;;5103979;27;19915;-56
2022/07/06 00:04:55;;;;;;;;;;;12.00;99.90;;;;;;5124639;27;19915;-54
2022/07/06 00:07:35;;;;;;;;;;;12.10;99.90;;;;;;5114142;27;19919;-55
2022/07/06 00:10:14;;;;;;;;;;;12.00;99.90;;;;;;5145012;27;19912;-55
2022/07/06 00:12:54;;;;;;;;;;;12.00;99.90;;;;;;5124883;27;19945;-55
2022/07/06 00:15:34;;;;;;;;;;;12.10;99.90;;;;;;5124369;27;19912;-55
2022/07/06 00:18:14;;;;;;;;;;;12.20;99.90;;;;;;5103876;27;19926;-54
2022/07/06 00:20:54;;;;;;;;;;;12.20;99.90;;;;;;5123781;27;19911;-55
2022/07/06 00:23:33;;;;;;;;;;;12.00;99.90;;;;;;5124570;27;19912;-55
2022/07/06 00:26:16;;;;;;;;;;;11.90;99.90;;;;;;5103086;27;19912;-56
2022/07/06 00:28:56;;;;;;;;;;;11.80;99.90;;;;;;5122876;27;19919;-55
2022/07/06 00:31:36;;;;;;;;;;;11.90;99.90;;;;;;5124444;27;19945;-56
2022/07/06 00:34:16;;;;;;;;;;;11.90;99.90;;;;;;5099319;27;20333;-56
2022/07/06 00:36:56;;;;;;;;;;;11.80;99.90;;;;;;5121205;27;20113;-56
2022/07/06 00:39:36;;;;;;;;;;;11.70;99.90;;;;;;5102021;27;19924;-55
2022/07/06 00:42:16;;;;;;;;;;;11.70;99.90;;;;;;5096785;27;19912;-55
2022/07/06 00:44:55;;;;;;;;;;;11.70;99.90;;;;;;5116351;27;19955;-55
2022/07/06 00:47:35;;;;;;;;;;;11.60;99.90;;;;;;5122599;27;19912;-56
2022/07/06 00:50:20;;;;;;;;;;;11.60;99.90;;;;;;5143556;27;20412;-55
2022/07/06 00:53:03;;;;;;;;;;;11.70;99.90;;;;;;5100637;27;19916;-54
2022/07/06 00:55:43;;;;;;;;;;;11.80;99.90;;;;;;5081348;27;19958;-56
2022/07/06 00:58:25;;;;;;;;;;;11.70;99.90;;;;;;5106986;27;19913;-56
2022/07/06 01:01:09;;;;;;;;;;;11.70;99.90;;;;;;5120705;27;19916;-56
2022/07/06 01:03:48;;;;;;;;;;;11.70;99.90;;;;;;5118066;27;19916;-54
2022/07/06 01:06:28;;;;;;;;;;;11.70;99.90;;;;;;5101773;27;19939;-56
2022/07/06 01:09:08;;;;;;;;;;;11.70;99.90;;;;;;5122701;27;19922;-55
2022/07/06 01:11:48;;;;;;;;;;;11.60;99.90;;;;;;5123663;27;19912;-55
2022/07/06 01:14:28;;;;;;;;;;;11.60;99.90;;;;;;5124831;27;20390;-55
2022/07/06 01:17:08;;;;;;;;;;;11.50;99.90;;;;;;5117881;27;19919;-55
2022/07/06 01:19:48;;;;;;;;;;;11.30;99.90;;;;;;5124383;27;19922;-56
2022/07/06 01:22:27;;;;;;;;;;;11.20;99.90;;;;;;5104390;27;19916;-56
2022/07/06 01:25:08;;;;;;;;;;;11.20;99.90;;;;;;5124163;27;20171;-55
2022/07/06 01:27:48;;;;;;;;;;;11.20;99.90;;;;;;5091467;27;20218;-55
2022/07/06 01:30:28;;;;;;;;;;;11.20;99.90;;;;;;5147741;27;19952;-55
2022/07/06 01:33:10;;;;;;;;;;;11.00;99.90;;;;;;5098674;27;20373;-56
2022/07/06 01:35:51;;;;;;;;;;;10.90;99.90;;;;;;5123663;27;19918;-55
2022/07/06 01:38:31;;;;;;;;;;;10.90;99.90;;;;;;5105326;27;19916;-55
2022/07/06 01:41:11;;;;;;;;;;;10.80;99.90;;;;;;5124460;27;19969;-55
2022/07/06 01:43:51;;;;;;;;;;;10.80;99.90;;;;;;5124768;27;19911;-55
2022/07/06 01:46:32;;;;;;;;;;;10.70;99.90;;;;;;5118456;27;19919;-55
2022/07/06 01:49:12;;;;;;;;;;;10.70;99.90;;;;;;5102823;27;19954;-56
2022/07/06 01:51:53;;;;;;;;;;;10.80;99.90;;;;;;5124458;27;19926;-55
2022/07/06 01:54:35;;;;;;;;;;;10.80;99.90;;;;;;5102483;27;20385;-56
2022/07/06 01:57:15;;;;;;;;;;;10.80;99.90;;;;;;5096052;27;19931;-55
2022/07/06 01:59:56;;;;;;;;;;;10.80;99.90;;;;;;5083251;28;20523;-55
2022/07/06 02:02:36;;;;;;;;;;;10.80;99.90;;;;;;5125094;27;20327;-54
2022/07/06 02:05:17;;;;;;;;;;;10.70;99.90;;;;;;5124579;27;19916;-54
2022/07/06 02:07:57;;;;;;;;;;;10.60;99.90;;;;;;5155162;27;19912;-56
2022/07/06 02:10:37;;;;;;;;;;;10.70;99.90;;;;;;5124251;27;19934;-54
2022/07/06 02:13:17;;;;;;;;;;;10.80;99.90;;;;;;5124294;27;19912;-55
2022/07/06 02:15:57;;;;;;;;;;;10.80;99.90;;;;;;5123628;27;19911;-53
2022/07/06 02:18:36;;;;;;;;;;;10.70;99.90;;;;;;5116169;27;19921;-53
2022/07/06 02:21:16;;;;;;;;;;;10.60;99.90;;;;;;5103606;27;19916;-55
2022/07/06 02:23:56;;;;;;;;;;;10.50;99.90;;;;;;5124406;27;19915;-56
2022/07/06 02:26:38;;;;;;;;;;;10.40;99.90;;;;;;5101630;27;19937;-56
2022/07/06 02:29:17;;;;;;;;;;;10.50;99.90;;;;;;5124645;27;19912;-57
2022/07/06 02:31:59;;;;;;;;;;;10.50;99.90;;;;;;5124011;27;20266;-54
2022/07/06 02:34:39;;;;;;;;;;;10.50;99.90;;;;;;5124402;27;19922;-53
2022/07/06 02:37:19;;;;;;;;;;;10.50;99.90;;;;;;5115837;27;19918;-53
2022/07/06 02:40:01;;;;;;;;;;;10.40;99.90;;;;;;5124061;27;20407;-54
2022/07/06 02:42:43;;;;;;;;;;;10.40;99.90;;;;;;5124641;27;20558;-53
2022/07/06 02:45:24;;;;;;;;;;;10.30;99.90;;;;;;5124506;27;19912;-56
2022/07/06 02:48:04;;;;;;;;;;;10.30;99.90;;;;;;5110498;27;20249;-54
2022/07/06 02:50:46;;;;;;;;;;;10.30;99.90;;;;;;5104543;27;20070;-54
2022/07/06 02:53:27;;;;;;;;;;;10.20;99.90;;;;;;5116128;27;19969;-53
2022/07/06 02:56:09;;;;;;;;;;;10.10;99.90;;;;;;5120563;27;19915;-55
2022/07/06 02:58:50;;;;;;;;;;;10.10;99.90;;;;;;5082744;28;19913;-54
2022/07/06 03:01:30;;;;;;;;;;;10.20;99.90;;;;;;5124442;27;19912;-53
2022/07/06 03:04:10;;;;;;;;;;;10.30;99.90;;;;;;5124357;27;19926;-53
2022/07/06 03:06:49;;;;;;;;;;;10.40;99.90;;;;;;5123491;27;20370;-54
2022/07/06 03:09:29;;;;;;;;;;;10.50;99.90;;;;;;5083278;27;19931;-55
2022/07/06 03:12:09;;;;;;;;;;;10.50;99.90;;;;;;5103753;27;20427;-57
2022/07/06 03:14:50;;;;;;;;;;;10.70;99.90;;;;;;5157466;27;19916;-55
2022/07/06 03:17:30;;;;;;;;;;;10.90;99.90;;;;;;5114735;27;19912;-55
2022/07/06 03:20:12;;;;;;;;;;;11.10;99.90;;;;;;5124225;27;19911;-55
2022/07/06 03:22:56;;;;;;;;;;;11.10;99.90;;;;;;5124204;27;19913;-55
2022/07/06 03:25:38;;;;;;;;;;;11.20;99.90;;;;;;5124261;27;20423;-57
2022/07/06 03:28:18;;;;;;;;;;;11.30;99.90;;;;;;5103506;27;19926;-55
2022/07/06 03:30:57;;;;;;;;;;;11.20;99.90;;;;;;5103488;27;19918;-55
2022/07/06 03:33:37;;;;;;;;;;;11.20;99.90;;;;;;5124863;27;19920;-53
2022/07/06 03:36:19;;;;;;;;;;;11.20;99.90;;;;;;5124079;27;19918;-54
2022/07/06 03:39:00;;;;;;;;;;;11.10;99.90;;;;;;5103750;27;19916;-53
2022/07/06 03:41:40;;;;;;;;;;;11.10;99.90;;;;;;5123695;27;20273;-54
2022/07/06 03:44:23;;;;;;;;;;;11.00;99.90;;;;;;5124346;27;19912;-52
2022/07/06 03:47:04;;;;;;;;;;;11.00;99.90;;;;;;5095387;27;19946;-52
2022/07/06 03:49:44;;;;;;;;;;;11.00;99.90;;;;;;5103377;27;19954;-54
2022/07/06 03:52:24;;;;;;;;;;;11.00;99.90;;;;;;5103903;27;20333;-54
2022/07/06 03:55:11;;;;;;;;;;;11.00;99.90;;;;;;5101875;27;19926;-53
2022/07/06 03:57:52;;;;;;;;;;;11.00;99.90;;;;;;5089225;27;20308;-56
2022/07/06 04:00:38;;;;;;;;;;;11.10;99.90;;;;;;5103856;27;19961;-54
2022/07/06 04:03:23;;;;;;;;;;;11.30;99.90;;;;;;5124511;27;20280;-55
2022/07/06 04:06:04;;;;;;;;;;;11.50;99.90;;;;;;5102815;27;19970;-56
2022/07/06 04:08:45;;;;;;;;;;;11.60;99.90;;;;;;5123193;27;19934;-54
2022/07/06 04:11:25;;;;;;;;;;;11.70;99.90;;;;;;5165340;27;19919;-54
2022/07/06 04:14:05;;;;;;;;;;;11.90;99.90;;;;;;5122953;27;19919;-54
2022/07/06 04:16:46;;;;;;;;;;;12.10;99.90;;;;;;5122027;27;20399;-53
2022/07/06 04:19:28;;;;;;;;;;;12.20;99.90;;;;;;5123829;27;19922;-54
2022/07/06 04:22:10;;;;;;;;;;;12.20;99.90;;;;;;5124084;27;20385;-53
2022/07/06 04:24:51;;;;;;;;;;;12.20;99.90;;;;;;5124252;27;19918;-53
2022/07/06 04:27:31;;;;;;;;;;;12.10;99.90;;;;;;5094122;27;20293;-55
2022/07/06 04:30:11;;;;;;;;;;;12.10;99.90;;;;;;5103438;27;20005;-54
2022/07/06 04:32:55;;;;;;;;;;;12.10;99.90;;;;;;5103661;27;19915;-53
2022/07/06 04:35:37;;;;;;;;;;;12.30;99.90;;;;;;5100210;27;20330;-56
2022/07/06 04:38:16;;;;;;;;;;;12.40;99.90;;;;;;5103115;27;19912;-54
2022/07/06 04:40:58;;;;;;;;;;;12.50;99.90;;;;;;5123833;27;19912;-54
2022/07/06 04:43:38;;;;;;;;;;;13.40;99.90;;;;;;5124350;27;19934;-55
2022/07/06 04:46:19;;;;;;;;;;;15.20;99.90;;;;;;5103122;27;19926;-54
2022/07/06 04:49:01;;;;;;;;;;;16.90;99.90;;;;;;5124444;27;20091;-53
2022/07/06 04:51:43;;;;;;;;;;;18.30;99.90;;;;;;5103454;27;19930;-54
2022/07/06 04:54:23;;;;;;;;;;;19.30;99.90;;;;;;5124500;27;19933;-55
2022/07/06 04:57:05;;;;;;;;;;;20.10;99.90;;;;;;5117851;27;19926;-52
2022/07/06 04:59:46;;;;;;;;;;;20.70;99.90;;;;;;5124472;27;19927;-54
2022/07/06 05:02:26;;;;;;;;;;;21.10;99.90;;;;;;5124864;27;19930;-54
2022/07/06 05:05:06;;;;;;;;;;;21.20;99.90;;;;;;5102322;27;19920;-55
2022/07/06 05:07:47;;;;;;;;;;;21.40;99.90;;;;;;5112342;27;19912;-52
2022/07/06 05:10:27;;;;;;;;;;;21.70;97.20;;;;;;5124055;27;19912;-53
2022/07/06 05:13:10;;;;;;;;;;;22.10;91.50;;;;;;5124215;27;19920;-56
2022/07/06 05:15:53;;;;;;;;;;;22.40;87.90;;;;;;5123642;27;20506;-55
2022/07/06 05:18:33;;;;;;;;;;;22.50;78.10;;;;;;5124009;27;19920;-54
2022/07/06 05:21:14;;;;;;;;;;;22.60;70.20;;;;;;5103781;27;19943;-54
2022/07/06 05:23:54;;;;;;;;;;;22.60;70.30;;;;;;5119344;27;19912;-54
2022/07/06 05:26:34;;;;;;;;;;;22.80;69.60;;;;;;5121661;27;19912;-54
2022/07/06 05:29:14;;;;;;;;;;;22.80;67.40;;;;;;5122597;27;19912;-53
2022/07/06 05:31:54;;;;;;;;;;;23.00;65.50;;;;;;5123949;27;19918;-52
2022/07/06 05:34:36;;;;;;;;;;;22.00;70.10;;;;;;5124810;27;19912;-53
2022/07/06 05:37:18;;;;;;;;;;;21.10;84.20;;;;;;5116555;27;20241;-52
2022/07/06 05:40:00;;;;;;;;;;;21.10;89.30;;;;;;5117943;27;19915;-55
2022/07/06 05:42:41;;;;;;;;;;;21.40;91.60;;;;;;5123186;27;19915;-53
2022/07/06 05:45:23;;;;;;;;;;;21.80;84.30;;;;;;5124008;27;19912;-55
2022/07/06 05:51:03;;;;;;;;;;;20.90;95.10;;;;;;5122386;27;20270;-53
2022/07/06 05:53:44;;;;;;;;;;;20.00;99.90;;;;;;5101564;27;19916;-53
2022/07/06 05:56:24;;;;;;;;;;;19.60;99.90;;;;;;5121241;27;20339;-54
2022/07/06 05:59:06;;;;;;;;;;;19.30;99.90;;;;;;5090202;27;19920;-53
2022/07/06 06:01:45;;;;;;;;;;;19.30;99.90;;;;;;5083740;28;19912;-56
2022/07/06 06:04:30;;;;;;;;;;;19.40;99.90;;;;;;5124876;27;20455;-54
2022/07/06 06:07:10;;;;;;;;;;;20.20;99.90;;;;;;5122208;27;19920;-55
2022/07/06 06:09:50;;;;;;;;;;;20.80;99.90;;;;;;5122741;27;19915;-55
2022/07/06 06:12:32;;;;;;;;;;;20.90;99.90;;;;;;5123579;27;20496;-53
2022/07/06 06:15:13;;;;;;;;;;;20.60;99.90;;;;;;5123347;27;19926;-56
2022/07/06 06:17:52;;;;;;;;;;;20.30;99.90;;;;;;5096808;27;19973;-54
2022/07/06 06:20:32;;;;;;;;;;;20.00;99.90;;;;;;5123724;27;19912;-53
2022/07/06 06:23:12;;;;;;;;;;;20.10;99.90;;;;;;5123212;27;20384;-54
2022/07/06 06:25:52;;;;;;;;;;;20.40;99.90;;;;;;5122101;27;19957;-54
2022/07/06 06:28:32;;;;;;;;;;;20.60;99.90;;;;;;5123098;27;20123;-52
2022/07/06 06:31:11;;;;;;;;;;;20.90;99.90;;;;;;5123167;27;19920;-52
2022/07/06 06:33:52;;;;;;;;;;;21.00;99.90;;;;;;5123415;27;19950;-55
2022/07/06 06:36:33;;;;;;;;;;;21.30;99.90;;;;;;5122517;27;20441;-53
2022/07/06 06:39:13;;;;;;;;;;;21.40;99.90;;;;;;5095823;27;19954;-54
2022/07/06 06:41:52;;;;;;;;;;;21.40;99.10;;;;;;5081584;28;19946;-54
2022/07/06 06:44:32;;;;;;;;;;;21.40;97.70;;;;;;5123655;27;19911;-53
2022/07/06 06:47:12;;;;;;;;;;;21.20;98.60;;;;;;5115570;27;20272;-54
2022/07/06 06:49:52;;;;;;;;;;;20.70;99.90;;;;;;5122966;27;19919;-56
2022/07/06 06:52:32;;;;;;;;;;;20.30;99.90;;;;;;5123650;27;20176;-55
2022/07/06 06:55:12;;;;;;;;;;;19.80;99.90;;;;;;5121049;27;20139;-53
2022/07/06 06:57:51;;;;;;;;;;;19.80;99.90;;;;;;5078343;28;20262;-53
2022/07/06 07:00:31;;;;;;;;;;;19.90;99.90;;;;;;5098268;27;20431;-53
2022/07/06 07:03:11;;;;;;;;;;;20.10;99.90;;;;;;5099396;27;19934;-54
2022/07/06 07:05:51;;;;;;;;;;;20.20;99.90;;;;;;5123190;27;19919;-55
2022/07/06 07:08:31;;;;;;;;;;;20.20;95.80;;;;;;5082179;28;19912;-54
2022/07/06 07:11:11;;;;;;;;;;;20.30;95.90;;;;;;5124480;27;19915;-54
2022/07/06 07:13:50;;;;;;;;;;;20.40;96.30;;;;;;5103999;27;19954;-55
2022/07/06 07:16:30;;;;;;;;;;;20.50;93.10;;;;;;5123203;27;20316;-53
2022/07/06 07:19:10;;;;;;;;;;;20.60;90.70;;;;;;5103279;27;20288;-53
2022/07/06 07:21:50;;;;;;;;;;;20.70;88.30;;;;;;5102150;27;19913;-54
2022/07/06 07:24:30;;;;;;;;;;;20.80;85.50;;;;;;5122438;27;19912;-54
2022/07/06 07:27:09;;;;;;;;;;;20.90;85.10;;;;;;5116021;27;19912;-52
2022/07/06 07:29:49;;;;;;;;;;;20.80;78.60;;;;;;5123752;27;19911;-52
2022/07/06 07:32:29;;;;;;;;;;;20.80;78.00;;;;;;5124575;27;19912;-54
2022/07/06 07:35:09;;;;;;;;;;;20.80;73.60;;;;;;5124461;27;19912;-55
2022/07/06 07:37:51;;;;;;;;;;;20.80;70.80;;;;;;5112123;27;19912;-53
2022/07/06 07:40:33;;;;;;;;;;;20.90;70.10;;;;;;5103538;27;20229;-54
2022/07/06 07:43:13;;;;;;;;;;;21.10;66.90;;;;;;5104171;27;19918;-55
2022/07/06 07:45:56;;;;;;;;;;;21.30;68.30;;;;;;5144174;27;19911;-55
2022/07/06 07:48:36;;;;;;;;;;;21.40;65.20;;;;;;5124144;27;20339;-56
2022/07/06 07:51:16;;;;;;;;;;;21.50;64.80;;;;;;5144685;27;19915;-54
2022/07/06 07:53:56;;;;;;;;;;;21.70;63.70;;;;;;5119441;27;19919;-54
2022/07/06 07:56:36;;;;;;;;;;;21.80;64.60;;;;;;5100481;27;20445;-55
2022/07/06 07:59:16;;;;;;;;;;;21.90;61.90;;;;;;5123048;27;19920;-54
2022/07/06 08:01:55;;;;;;;;;;;22.00;60.30;;;;;;5123760;27;19911;-54
2022/07/06 08:04:35;;;;;;;;;;;22.20;59.30;;;;;;5124925;27;20361;-54
2022/07/06 08:07:15;;;;;;;;;;;22.10;57.00;;;;;;5123443;27;19915;-57
2022/07/06 08:09:55;;;;;;;;;;;22.10;56.50;;;;;;5125573;27;20177;-54
2022/07/06 08:12:35;;;;;;;;;;;22.30;54.20;;;;;;5125013;27;19912;-54
2022/07/06 08:15:14;;;;;;;;;;;22.40;52.90;;;;;;5124926;27;19918;-54
2022/07/06 08:17:54;;;;;;;;;;;22.40;55.00;;;;;;5123990;27;19925;-54
2022/07/06 08:20:34;;;;;;;;;;;22.70;55.30;;;;;;5124733;27;20378;-54
2022/07/06 08:23:14;;;;;;;;;;;22.90;54.70;;;;;;5125867;27;19912;-53
2022/07/06 08:25:54;;;;;;;;;;;23.00;52.90;;;;;;5121762;27;20324;-54
2022/07/06 08:28:34;;;;;;;;;;;23.00;52.90;;;;;;5125327;27;19926;-54
2022/07/06 08:31:13;;;;;;;;;;;23.10;53.50;;;;;;5125156;27;19911;-54
2022/07/06 08:33:54;;;;;;;;;;;23.40;53.40;;;;;;5122024;27;19916;-53
2022/07/06 08:36:35;;;;;;;;;;;23.60;51.60;;;;;;5122784;27;19930;-53
2022/07/06 08:39:14;;;;;;;;;;;23.80;48.40;;;;;;5124314;27;19920;-53
2022/07/06 08:41:56;;;;;;;;;;;23.70;47.70;;;;;;5125431;27;19916;-53
2022/07/06 08:44:37;;;;;;;;;;;23.80;46.50;;;;;;5099701;27;19912;-53
2022/07/06 08:47:18;;;;;;;;;;;24.20;48.30;;;;;;5082977;27;20095;-55
2022/07/06 08:49:59;;;;;;;;;;;24.80;46.90;;;;;;5118386;27;19927;-55
2022/07/06 08:52:39;;;;;;;;;;;25.30;43.70;;;;;;5121085;27;19918;-55
2022/07/06 08:55:20;;;;;;;;;;;25.20;43.60;;;;;;5084092;27;19931;-54
2022/07/06 08:58:00;;;;;;;;;;;25.40;43.80;;;;;;5091366;27;19913;-55
2022/07/06 09:00:40;;;;;;;;;;;25.50;41.10;;;;;;5125250;27;19926;-55
2022/07/06 09:03:20;;;;;;;;;;;25.40;41.20;;;;;;5125914;27;19912;-54
2022/07/06 09:06:02;;;;;;;;;;;25.60;41.40;;;;;;5125161;27;19912;-55
2022/07/06 09:08:43;;;;;;;;;;;25.90;40.00;;;;;;5126039;27;19971;-54
2022/07/06 09:11:27;;;;;;;;;;;25.70;40.40;;;;;;5125650;27;19916;-55
2022/07/06 09:14:07;;;;;;;;;;;25.70;40.70;;;;;;5125790;27;19912;-55
2022/07/06 09:16:47;;;;;;;;;;;25.70;40.90;;;;;;5102518;27;19912;-54
2022/07/06 09:19:26;;;;;;;;;;;25.60;39.40;;;;;;5105969;27;19912;-55
2022/07/06 09:22:06;;;;;;;;;;;25.70;38.20;;;;;;5085300;28;19913;-55
2022/07/06 09:24:46;;;;;;;;;;;25.80;37.70;;;;;;5125213;27;20423;-54
2022/07/06 09:27:26;;;;;;;;;;;25.90;36.50;;;;;;5125453;27;19919;-53
2022/07/06 09:30:06;;;;;;;;;;;25.80;36.40;;;;;;5125424;27;19915;-53
2022/07/06 09:32:49;;;;;;;;;;;25.30;37.10;;;;;;5126070;27;19912;-54
2022/07/06 09:35:36;;;;;;;;;;;24.70;37.30;;;;;;5125930;27;20344;-53
2022/07/06 09:38:17;;;;;;;;;;;24.50;38.80;;;;;;5125469;27;19912;-53
2022/07/06 09:40:58;;;;;;;;;;;24.50;40.20;;;;;;5104936;27;19926;-54
2022/07/06 09:43:38;;;;;;;;;;;24.80;39.70;;;;;;5105101;27;19926;-54
2022/07/06 09:46:19;;;;;;;;;;;24.90;37.90;;;;;;5150494;27;19911;-54
2022/07/06 09:49:00;;;;;;;;;;;24.90;38.70;;;;;;5105108;27;19938;-54
2022/07/06 09:51:40;;;;;;;;;;;25.00;39.60;;;;;;5125712;27;19926;-54
2022/07/06 09:54:20;;;;;;;;;;;25.50;37.90;;;;;;5125881;27;19912;-54
2022/07/06 09:57:00;;;;;;;;;;;26.20;35.80;;;;;;5124985;27;20320;-54
2022/07/06 09:59:40;;;;;;;;;;;26.90;33.70;;;;;;5126130;27;20373;-54
2022/07/06 10:02:22;;;;;;;;;;;26.70;33.80;;;;;;5126380;27;19972;-54
2022/07/06 10:05:04;;;;;;;;;;;25.70;35.60;;;;;;5104225;27;19912;-53
2022/07/06 10:07:45;;;;;;;;;;;24.90;36.90;;;;;;5105012;27;19912;-53
2022/07/06 10:10:26;;;;;;;;;;;24.50;38.50;;;;;;5125942;27;19919;-54
2022/07/06 10:13:08;;;;;;;;;;;24.60;39.10;;;;;;5105645;27;19912;-54
2022/07/06 10:15:49;;;;;;;;;;;25.10;37.20;;;;;;5105032;27;19912;-53
2022/07/06 10:18:28;;;;;;;;;;;25.60;36.20;;;;;;5160533;27;19915;-54
2022/07/06 10:21:08;;;;;;;;;;;26.10;35.90;;;;;;5126090;27;19922;-55
2022/07/06 10:23:48;;;;;;;;;;;26.70;34.40;;;;;;5125904;27;19927;-56
2022/07/06 10:26:30;;;;;;;;;;;26.80;33.80;;;;;;5125202;27;19922;-55
2022/07/06 10:29:11;;;;;;;;;;;26.70;33.90;;;;;;5124706;27;19922;-56
2022/07/06 10:31:51;;;;;;;;;;;26.50;32.70;;;;;;5124828;27;19923;-56
2022/07/06 10:34:32;;;;;;;;;;;26.20;34.10;;;;;;5125987;27;19916;-53
2022/07/06 10:37:21;;;;;;;;;;;26.30;34.40;;;;;;5118999;27;20340;-53
2022/07/06 10:42:59;;;;;;;;;;;25.60;34.50;;;;;;5125103;27;19912;-54
2022/07/06 10:45:53;;;;;;;;;;;25.30;34.50;;;;;;5125552;27;19922;-54
2022/07/06 10:48:37;;;;;;;;;;;25.40;32.50;;;;;;5125050;27;19927;-54
2022/07/06 10:51:25;;;;;;;;;;;25.80;32.70;;;;;;5125592;27;19911;-54
2022/07/06 10:54:07;;;;;;;;;;;26.30;31.90;;;;;;5105355;27;20435;-55
2022/07/06 10:56:50;;;;;;;;;;;26.30;29.00;;;;;;5101384;27;19920;-55
2022/07/06 10:59:30;;;;;;;;;;;26.50;32.10;;;;;;5125717;27;20107;-54
2022/07/06 11:02:17;;;;;;;;;;;27.10;31.10;;;;;;5105327;27;19965;-55
2022/07/06 11:04:57;;;;;;;;;;;27.60;30.40;;;;;;5084400;28;19912;-55
2022/07/06 11:07:49;;;;;;;;;;;28.00;29.00;;;;;;5125101;27;19916;-55
2022/07/06 11:10:46;;;;;;;;;;;28.30;28.30;;;;;;5124705;27;19915;-55
2022/07/06 11:13:28;;;;;;;;;;;27.70;29.30;;;;;;5124528;27;20335;-55
2022/07/06 11:16:09;;;;;;;;;;;27.00;29.70;;;;;;5122050;27;19915;-54
2022/07/06 11:18:49;;;;;;;;;;;27.00;30.00;;;;;;5124734;27;19918;-54
2022/07/06 11:21:45;;;;;;;;;;;27.20;29.00;;;;;;5125114;27;19912;-55
2022/07/06 11:24:26;;;;;;;;;;;27.90;29.70;;;;;;5125771;27;19911;-55
2022/07/06 11:27:08;;;;;;;;;;;28.10;29.90;;;;;;5124457;27;19916;-53
2022/07/06 11:29:48;;;;;;;;;;;28.10;28.90;;;;;;5125341;27;19912;-56
2022/07/06 11:32:29;;;;;;;;;;;28.30;29.00;;;;;;5125729;27;19912;-55
2022/07/06 11:35:08;;;;;;;;;;;28.30;28.40;;;;;;5125971;27;19953;-55
2022/07/06 11:37:48;;;;;;;;;;;28.10;28.70;;;;;;5113835;27;20275;-55
2022/07/06 11:40:29;;;;;;;;;;;28.00;29.50;;;;;;5125400;27;19911;-54
2022/07/06 11:43:09;;;;;;;;;;;28.10;29.00;;;;;;5124752;27;19916;-55
2022/07/06 11:45:49;;;;;;;;;;;28.30;28.80;;;;;;5125079;27;20340;-55
2022/07/06 11:48:29;;;;;;;;;;;28.20;28.60;;;;;;5123645;27;20405;-54
2022/07/06 11:51:09;;;;;;;;;;;28.00;29.20;;;;;;5102806;27;19930;-55
2022/07/06 11:53:49;;;;;;;;;;;27.70;29.90;;;;;;5125989;27;19926;-55
2022/07/06 11:56:30;;;;;;;;;;;27.40;29.50;;;;;;5125159;27;20324;-54
2022/07/06 11:59:11;;;;;;;;;;;27.10;30.20;;;;;;5125521;27;19923;-55
2022/07/06 12:01:58;;;;;;;;;;;27.50;29.70;;;;;;5125649;27;19927;-54
2022/07/06 12:04:38;;;;;;;;;;;27.90;30.10;;;;;;5097060;27;19920;-54
2022/07/06 12:07:17;;;;;;;;;;;27.80;29.40;;;;;;5115684;27;19953;-54
2022/07/06 12:09:57;;;;;;;;;;;27.40;29.40;;;;;;5124838;27;19918;-54
2022/07/06 12:12:37;;;;;;;;;;;27.10;29.70;;;;;;5124569;27;20306;-54
2022/07/06 12:15:19;;;;;;;;;;;26.90;29.60;;;;;;5116178;27;19916;-54
2022/07/06 12:17:56;;;;;;;;;;;26.40;29.30;;;;;;5069536;27;1979535;-54
2022/07/06 12:20:36;;;;;;;;;;;26.20;29.30;;;;;;5125344;27;19912;-54
2022/07/06 12:23:16;;;;;;;;;;;26.90;28.70;;;;;;5105386;27;20142;-54
2022/07/06 12:25:56;;;;;;;;;;;27.20;29.10;;;;;;5145189;27;19987;-54
2022/07/06 12:28:36;;;;;;;;;;;26.50;30.00;;;;;;5123519;27;19916;-54
2022/07/06 12:31:29;;;;;;;;;;;26.10;30.50;;;;;;5121573;27;19927;-54
2022/07/06 12:34:15;;;;;;;;;;;26.00;30.40;;;;;;5124886;27;19925;-54
2022/07/06 12:36:55;;;;;;;;;;;26.10;30.00;;;;;;5121005;27;20413;-54
2022/07/06 12:39:43;;;;;;;;;;;26.00;30.80;;;;;;5105016;27;19953;-54
2022/07/06 12:42:22;;;;;;;;;;;26.00;30.50;;;;;;5118221;27;19916;-54
2022/07/06 12:45:02;;;;;;;;;;;26.00;30.00;;;;;;5125048;27;19918;-54
2022/07/06 12:47:57;;;;;;;;;;;26.30;31.50;;;;;;5104631;27;19926;-54
2022/07/06 12:50:40;;;;;;;;;;;26.70;30.60;;;;;;5101010;27;19945;-54
2022/07/06 12:53:26;;;;;;;;;;;26.90;31.40;;;;;;5124834;27;19912;-55
2022/07/06 12:56:11;;;;;;;;;;;27.00;30.30;;;;;;5104513;27;19953;-54
2022/07/06 12:58:57;;;;;;;;;;;26.50;30.40;;;;;;5104474;27;19928;-54
2022/07/06 13:01:47;;;;;;;;;;;26.20;31.30;;;;;;5158008;27;19917;-55
2022/07/06 13:04:28;;;;;;;;;;;25.90;31.30;;;;;;5125463;27;19912;-54
2022/07/06 13:07:18;;;;;;;;;;;26.00;30.80;;;;;;5124629;27;19912;-54
2022/07/06 13:09:58;;;;;;;;;;;26.10;30.20;;;;;;5104797;27;19945;-55
2022/07/06 13:12:39;;;;;;;;;;;26.30;30.70;;;;;;5123422;27;19918;-54
2022/07/06 13:15:21;;;;;;;;;;;26.10;29.50;;;;;;5103223;27;19926;-54
2022/07/06 13:18:01;;;;;;;;;;;25.90;29.70;;;;;;5111597;27;19918;-55
2022/07/06 13:20:41;;;;;;;;;;;25.90;29.20;;;;;;5125236;27;20369;-55
2022/07/06 13:23:20;;;;;;;;;;;26.00;30.50;;;;;;5125044;27;19930;-54
2022/07/06 13:26:00;;;;;;;;;;;26.10;28.80;;;;;;5124392;27;19920;-53
2022/07/06 13:28:40;;;;;;;;;;;26.30;28.60;;;;;;5077291;28;19958;-55
2022/07/06 13:31:22;;;;;;;;;;;26.60;29.50;;;;;;5105020;27;19930;-54
2022/07/06 13:34:01;;;;;;;;;;;27.00;25.70;;;;;;5125350;27;19912;-54
2022/07/06 13:36:41;;;;;;;;;;;27.20;26.50;;;;;;5121167;27;19912;-53
2022/07/06 13:39:21;;;;;;;;;;;27.50;24.70;;;;;;5102406;27;19920;-54
2022/07/06 13:42:01;;;;;;;;;;;27.80;25.60;;;;;;5110548;27;19953;-54
2022/07/06 13:44:41;;;;;;;;;;;28.10;24.90;;;;;;5124332;27;20551;-54
2022/07/06 13:47:20;;;;;;;;;;;28.10;25.20;;;;;;5116852;27;19912;-54
2022/07/06 13:50:00;;;;;;;;;;;27.80;24.50;;;;;;5164604;27;19915;-55
2022/07/06 13:52:40;;;;;;;;;;;27.40;26.50;;;;;;5102225;27;19920;-53
2022/07/06 13:55:20;;;;;;;;;;;27.00;26.20;;;;;;5124403;27;19915;-53
2022/07/06 13:58:00;;;;;;;;;;;26.70;26.40;;;;;;5124993;27;20266;-53
2022/07/06 14:00:40;;;;;;;;;;;26.60;25.80;;;;;;5126127;27;19912;-53
2022/07/06 14:03:19;;;;;;;;;;;26.80;25.80;;;;;;5104947;27;19926;-54
2022/07/06 14:06:00;;;;;;;;;;;27.00;25.80;;;;;;5125997;27;20091;-54
2022/07/06 14:08:40;;;;;;;;;;;27.10;25.60;;;;;;5084448;28;20287;-53
2022/07/06 14:11:21;;;;;;;;;;;27.40;25.80;;;;;;5126135;27;19912;-54
2022/07/06 14:14:00;;;;;;;;;;;27.80;25.80;;;;;;5126116;27;19915;-54
2022/07/06 14:16:41;;;;;;;;;;;28.30;25.70;;;;;;5124222;27;19912;-54
2022/07/06 14:19:22;;;;;;;;;;;28.60;24.70;;;;;;5160220;27;19915;-53
2022/07/06 14:22:01;;;;;;;;;;;28.50;25.40;;;;;;5105969;27;19912;-54
2022/07/06 14:24:41;;;;;;;;;;;28.50;26.00;;;;;;5126680;27;19911;-54
2022/07/06 14:27:21;;;;;;;;;;;28.80;26.00;;;;;;5104887;27;19912;-54
2022/07/06 14:30:01;;;;;;;;;;;29.00;25.40;;;;;;5126233;27;19934;-54
2022/07/06 14:32:43;;;;;;;;;;;28.80;24.80;;;;;;5105951;27;19912;-53
2022/07/06 14:35:24;;;;;;;;;;;28.20;24.70;;;;;;5125305;27;20417;-53
2022/07/06 14:38:06;;;;;;;;;;;27.90;25.40;;;;;;5115934;22;19928;-59
2022/07/06 14:40:48;;;;;;;;;;;27.50;25.50;;;;;;5118025;27;19911;-58
2022/07/06 14:43:28;;;;;;;;;;;27.60;25.80;;;;;;5124644;27;19912;-58
2022/07/06 14:46:08;;;;;;;;;;;28.00;25.90;;;;;;5139865;27;20266;-58
2022/07/06 14:48:48;;;;;;;;;;;28.00;25.60;;;;;;5123559;27;20329;-59
2022/07/06 14:51:28;;;;;;;;;;;28.30;26.20;;;;;;5124782;27;19915;-59
2022/07/06 14:54:07;;;;;;;;;;;28.40;25.80;;;;;;5103309;27;19916;-58
2022/07/06 14:56:47;;;;;;;;;;;29.10;25.60;;;;;;5127756;27;20945;-58
2022/07/06 14:59:27;;;;;;;;;;;29.70;26.10;;;;;;5118129;27;20326;-58
2022/07/06 15:02:07;;;;;;;;;;;30.00;24.90;;;;;;5103545;27;19916;-57
2022/07/06 15:04:47;;;;;;;;;;;30.30;24.30;;;;;;5121472;27;19911;-58
2022/07/06 15:07:27;;;;;;;;;;;30.40;23.60;;;;;;5098797;27;19916;-58
2022/07/06 15:10:08;;;;;;;;;;;30.30;24.10;;;;;;5119856;27;19911;-58
2022/07/06 15:12:48;;;;;;;;;;;30.30;23.90;;;;;;5103431;27;19920;-58
2022/07/06 15:15:28;;;;;;;;;;;30.00;24.10;;;;;;5144012;27;19911;-58
2022/07/06 15:18:07;;;;;;;;;;;29.50;23.80;;;;;;5143980;27;19915;-58
2022/07/06 15:20:47;;;;;;;;;;;29.00;24.20;;;;;;5122672;27;19926;-58
2022/07/06 15:23:27;;;;;;;;;;;28.80;24.40;;;;;;5123538;27;19911;-57
2022/07/06 15:26:07;;;;;;;;;;;28.40;25.20;;;;;;5122930;27;20245;-58
2022/07/06 15:28:47;;;;;;;;;;;28.40;25.00;;;;;;5123230;27;19919;-58
2022/07/06 15:31:27;;;;;;;;;;;29.30;24.70;;;;;;5123238;27;19912;-58
2022/07/06 15:34:06;;;;;;;;;;;29.20;24.20;;;;;;5123532;27;19926;-58
2022/07/06 15:36:46;;;;;;;;;;;29.30;24.70;;;;;;5123267;27;19953;-58
2022/07/06 15:39:26;;;;;;;;;;;29.40;24.10;;;;;;5122700;27;20209;-57
2022/07/06 15:42:06;;;;;;;;;;;30.20;24.10;;;;;;5124326;27;19912;-58